WetterOnline ( https://www.wetteronline.de )

Wetter aktuell Sansenhof

Aktuelles Wetter: Michelstadt-Vielbrunn (455m)

6-stündlich | Neueste Meldungen
Ortszeit Temperatur Wetter
Mo, 08.03. 13:00 3.9° C bedeckt
Mo, 08.03. 7:00 -2.2° C leicht bewölkt
Mo, 08.03. 1:00 -1.9° C wolkenlos
So, 07.03. 19:00 2.7° C wolkenlos
So, 07.03. 13:00 4.0° C wolkenlos
So, 07.03. 7:00 -3.9° C wolkenlos
So, 07.03. 1:00 -0.4° C leicht bewölkt
Sa, 06.03. 19:00 1.1° C wolkenlos
Ortszeit Temperatur Wetter
Mo, 08.03. 15:30 4.4° C bedeckt
Mo, 08.03. 15:20 4.4° C bedeckt
Mo, 08.03. 15:10 4.4° C bedeckt
Mo, 08.03. 15:00 4.4° C bedeckt
Mo, 08.03. 14:50 4.4° C bedeckt
Mo, 08.03. 14:40 4.6° C bedeckt
Mo, 08.03. 14:30 4.7° C bedeckt
Mo, 08.03. 14:00 4.1° C bedeckt
Ortszeit Relative Feuchte Sichtweite
Mo, 08.03. 13:00 63% 35 km
Mo, 08.03. 7:00 81% 35 km
Mo, 08.03. 1:00 80% 30 km
So, 07.03. 19:00 45% 55 km
So, 07.03. 13:00 39% 45 km
So, 07.03. 7:00 70% 45 km
So, 07.03. 1:00 53% 60 km
Sa, 06.03. 19:00 54% 50 km
Ortszeit Relative Feuchte Sichtweite
Mo, 08.03. 15:30 61% 45 km
Mo, 08.03. 15:20 61% -
Mo, 08.03. 15:10 60% -
Mo, 08.03. 15:00 58% 50 km
Mo, 08.03. 14:50 58% -
Mo, 08.03. 14:40 60% -
Mo, 08.03. 14:30 59% 40 km
Mo, 08.03. 14:00 57% 50 km
Ortszeit Niederschlagsmenge Niederschlagsart
Mo, 08.03. 13:00 0.0 l/m2 in 6 Std. -
Mo, 08.03. 7:00 0.0 l/m2 in 12 Std. -
Mo, 08.03. 1:00 0.0 l/m2 in 6 Std. -
So, 07.03. 19:00 0.0 l/m2 in 12 Std. -
So, 07.03. 13:00 0.0 l/m2 in 6 Std. -
So, 07.03. 7:00 0.0 l/m2 in 12 Std. -
So, 07.03. 1:00 0.0 l/m2 in 6 Std. -
Sa, 06.03. 19:00 0.0 l/m2 in 12 Std. -
Ortszeit Niederschlagsmenge Niederschlagsart
Mo, 08.03. 15:30 0.0 l/m2 in 1 Std. -
Mo, 08.03. 15:20 keine Meldung -
Mo, 08.03. 15:10 keine Meldung -
Mo, 08.03. 15:00 0.0 l/m2 in 1 Std. -
Mo, 08.03. 14:50 keine Meldung -
Mo, 08.03. 14:40 keine Meldung -
Mo, 08.03. 14:30 0.0 l/m2 in 1 Std. -
Mo, 08.03. 14:00 0.0 l/m2 in 1 Std. -
Ortszeit Stärke Spitze Richtung
km/h Bft. km/h Grad Sektor
Mo, 08.03. 13:00 9 2 20 60° NO
Mo, 08.03. 7:00 7 2 18 10° N
Mo, 08.03. 1:00 7 2 22 350° N
So, 07.03. 19:00 13 3 22 330° NW
So, 07.03. 13:00 11 2 18 90° O
So, 07.03. 7:00 4 1 18 340° N
So, 07.03. 1:00 7 2 18 120° SO
Sa, 06.03. 19:00 13 3 30 90° O
Ortszeit Stärke Spitze Richtung
km/h Bft. km/h Grad Sektor
Mo, 08.03. 15:30 11 2 18 30° NO
Mo, 08.03. 15:20 11 2 - 30° NO
Mo, 08.03. 15:10 11 2 - 40° NO
Mo, 08.03. 15:00 11 2 18 30° NO
Mo, 08.03. 14:50 11 2 - 30° NO
Mo, 08.03. 14:40 11 2 - 40° NO
Mo, 08.03. 14:30 7 2 14 20° N
Mo, 08.03. 14:00 7 2 18 60° NO
Ortszeit Untergrenze Bedeckung Gattung
total tief tief mittel hoch
Mo, 08.03. 13:00 1500 m 8/8 8/8 - - -
Mo, 08.03. 7:00 4500 m 3/8 3/8 - - -
Mo, 08.03. 1:00 - 0/8 0/8 - - -
So, 07.03. 19:00 - 0/8 0/8 - - -
So, 07.03. 13:00 - 0/8 0/8 - - -
So, 07.03. 7:00 - 0/8 0/8 - - -
So, 07.03. 1:00 10500 m 4/8 0/8 - - -
Sa, 06.03. 19:00 - 0/8 0/8 - - -
Ortszeit Bedeckungsgrad in Achtel und Wolkenuntergrenze
Mo, 08.03. 15:30 8(1500m)
Mo, 08.03. 15:20 8(1500m)
Mo, 08.03. 15:10 8(1500m)
Mo, 08.03. 15:00 8(1500m)
Mo, 08.03. 14:50 8(1500m)
Mo, 08.03. 14:40 8(1500m)
Mo, 08.03. 14:30 8(1500m)
Mo, 08.03. 14:00 8(1500m)
Ortszeit Luftdruck NN (hPa) Tendenz (hPa in 3 Std.)
Mo, 08.03. 13:00 1023 - 0,2
Mo, 08.03. 7:00 1023 + 0,7
Mo, 08.03. 1:00 1023 + 0,1
So, 07.03. 19:00 1021 - 0,2
So, 07.03. 13:00 1023 - 1,7
So, 07.03. 7:00 1027 - 0,6
So, 07.03. 1:00 1029 - 1,4
Sa, 06.03. 19:00 1031 - 0,9
Ortszeit Luftdruck NN (hPa) Tendenz (hPa in 3 Std.)
Mo, 08.03. 15:30 1022 - 0,9
Mo, 08.03. 15:20 1022 keine Meldung
Mo, 08.03. 15:10 1022 keine Meldung
Mo, 08.03. 15:00 1022 - 1,0
Mo, 08.03. 14:50 1022 keine Meldung
Mo, 08.03. 14:40 1022 keine Meldung
Mo, 08.03. 14:30 1022 - 0,9
Mo, 08.03. 14:00 1022 - 0,7
Ortszeit Schneehöhe (cm)
Mo, 08.03. 13:00 0
Mo, 08.03. 7:00 0
Mo, 08.03. 1:00 0
So, 07.03. 19:00 0
So, 07.03. 13:00 0
So, 07.03. 7:00 0
So, 07.03. 1:00 0
Sa, 06.03. 19:00 0
Ortszeit Schneehöhe (cm)
Mo, 08.03. 15:30 0
Mo, 08.03. 15:20 0
Mo, 08.03. 15:10 0
Mo, 08.03. 15:00 0
Mo, 08.03. 14:50 0
Mo, 08.03. 14:40 0
Mo, 08.03. 14:30 0
Mo, 08.03. 14:00 0
Link zu dieser Seite / Seite empfehlen

Das Wetter in ...